sensor_id;sensor_type;location;lat;lon;timestamp;P1;durP1;ratioP1;P2;durP2;ratioP2
45476;SDS011;31958;51.756;-2.556;2023-04-19T00:02:13;17.17;;;5.35;;
45476;SDS011;31958;51.756;-2.556;2023-04-19T00:04:38;12.30;;;5.40;;
45476;SDS011;31958;51.756;-2.556;2023-04-19T00:07:18;16.75;;;6.18;;
45476;SDS011;31958;51.756;-2.556;2023-04-19T00:09:44;13.93;;;6.17;;
45476;SDS011;31958;51.756;-2.556;2023-04-19T00:12:09;21.00;;;5.95;;
45476;SDS011;31958;51.756;-2.556;2023-04-19T00:14:47;14.43;;;5.88;;
45476;SDS011;31958;51.756;-2.556;2023-04-19T00:17:13;16.17;;;6.07;;
45476;SDS011;31958;51.756;-2.556;2023-04-19T00:19:38;17.35;;;5.57;;
45476;SDS011;31958;51.756;-2.556;2023-04-19T00:22:16;17.60;;;6.32;;
45476;SDS011;31958;51.756;-2.556;2023-04-19T00:24:42;17.52;;;5.93;;
45476;SDS011;31958;51.756;-2.556;2023-04-19T00:27:07;17.52;;;6.75;;
45476;SDS011;31958;51.756;-2.556;2023-04-19T00:29:45;22.15;;;5.88;;
45476;SDS011;31958;51.756;-2.556;2023-04-19T00:32:11;18.02;;;5.72;;
45476;SDS011;31958;51.756;-2.556;2023-04-19T00:34:36;12.63;;;5.63;;
45476;SDS011;31958;51.756;-2.556;2023-04-19T00:37:14;15.73;;;6.65;;
45476;SDS011;31958;51.756;-2.556;2023-04-19T00:39:40;16.63;;;6.43;;
45476;SDS011;31958;51.756;-2.556;2023-04-19T00:42:05;12.85;;;5.78;;
45476;SDS011;31958;51.756;-2.556;2023-04-19T00:44:45;13.93;;;6.20;;
45476;SDS011;31958;51.756;-2.556;2023-04-19T00:47:10;20.15;;;6.35;;
45476;SDS011;31958;51.756;-2.556;2023-04-19T00:49:36;19.63;;;5.80;;
45476;SDS011;31958;51.756;-2.556;2023-04-19T00:52:14;11.70;;;5.63;;
45476;SDS011;31958;51.756;-2.556;2023-04-19T00:54:40;17.15;;;6.72;;
45476;SDS011;31958;51.756;-2.556;2023-04-19T00:57:07;8.85;;;4.80;;
45476;SDS011;31958;51.756;-2.556;2023-04-19T00:59:46;15.15;;;6.60;;
45476;SDS011;31958;51.756;-2.556;2023-04-19T01:02:11;17.38;;;6.25;;
45476;SDS011;31958;51.756;-2.556;2023-04-19T01:04:36;16.08;;;7.43;;
45476;SDS011;31958;51.756;-2.556;2023-04-19T01:07:15;16.42;;;6.25;;
45476;SDS011;31958;51.756;-2.556;2023-04-19T01:09:42;18.13;;;7.15;;
45476;SDS011;31958;51.756;-2.556;2023-04-19T01:12:08;22.42;;;6.40;;
45476;SDS011;31958;51.756;-2.556;2023-04-19T01:14:47;13.68;;;6.07;;
45476;SDS011;31958;51.756;-2.556;2023-04-19T01:17:12;17.17;;;6.18;;
45476;SDS011;31958;51.756;-2.556;2023-04-19T01:19:37;18.90;;;7.15;;
45476;SDS011;31958;51.756;-2.556;2023-04-19T01:22:20;26.30;;;7.53;;
45476;SDS011;31958;51.756;-2.556;2023-04-19T01:24:46;13.98;;;6.93;;
45476;SDS011;31958;51.756;-2.556;2023-04-19T01:27:25;22.35;;;7.95;;
45476;SDS011;31958;51.756;-2.556;2023-04-19T01:29:51;15.05;;;6.13;;
45476;SDS011;31958;51.756;-2.556;2023-04-19T01:32:16;18.90;;;7.15;;
45476;SDS011;31958;51.756;-2.556;2023-04-19T01:34:56;19.77;;;7.22;;
45476;SDS011;31958;51.756;-2.556;2023-04-19T01:37:22;16.98;;;6.78;;
45476;SDS011;31958;51.756;-2.556;2023-04-19T01:39:47;16.58;;;7.28;;
45476;SDS011;31958;51.756;-2.556;2023-04-19T01:42:27;16.95;;;6.82;;
45476;SDS011;31958;51.756;-2.556;2023-04-19T01:44:52;21.98;;;8.13;;
45476;SDS011;31958;51.756;-2.556;2023-04-19T01:47:17;16.08;;;7.40;;
45476;SDS011;31958;51.756;-2.556;2023-04-19T01:49:56;13.82;;;6.90;;
45476;SDS011;31958;51.756;-2.556;2023-04-19T01:52:21;17.20;;;7.88;;
45476;SDS011;31958;51.756;-2.556;2023-04-19T01:54:46;21.55;;;8.23;;
45476;SDS011;31958;51.756;-2.556;2023-04-19T01:57:25;19.45;;;8.27;;
45476;SDS011;31958;51.756;-2.556;2023-04-19T01:59:51;22.33;;;9.52;;
45476;SDS011;31958;51.756;-2.556;2023-04-19T02:02:17;18.38;;;8.27;;
45476;SDS011;31958;51.756;-2.556;2023-04-19T02:04:56;17.90;;;8.63;;
45476;SDS011;31958;51.756;-2.556;2023-04-19T02:07:21;19.48;;;9.00;;
45476;SDS011;31958;51.756;-2.556;2023-04-19T02:09:47;22.55;;;8.77;;
45476;SDS011;31958;51.756;-2.556;2023-04-19T02:12:26;34.30;;;9.73;;
45476;SDS011;31958;51.756;-2.556;2023-04-19T02:14:57;32.75;;;9.63;;
45476;SDS011;31958;51.756;-2.556;2023-04-19T02:17:38;21.73;;;8.18;;
45476;SDS011;31958;51.756;-2.556;2023-04-19T02:20:04;20.10;;;8.38;;
45476;SDS011;31958;51.756;-2.556;2023-04-19T02:22:32;20.27;;;9.48;;
45476;SDS011;31958;51.756;-2.556;2023-04-19T02:25:11;16.65;;;7.63;;
45476;SDS011;31958;51.756;-2.556;2023-04-19T02:27:36;26.92;;;10.00;;
45476;SDS011;31958;51.756;-2.556;2023-04-19T02:30:01;18.77;;;9.60;;
45476;SDS011;31958;51.756;-2.556;2023-04-19T02:32:41;19.52;;;9.93;;
45476;SDS011;31958;51.756;-2.556;2023-04-19T02:35:06;21.23;;;9.88;;
45476;SDS011;31958;51.756;-2.556;2023-04-19T02:37:32;17.70;;;8.07;;
45476;SDS011;31958;51.756;-2.556;2023-04-19T02:40:11;25.10;;;10.18;;
45476;SDS011;31958;51.756;-2.556;2023-04-19T02:42:36;17.90;;;8.35;;
45476;SDS011;31958;51.756;-2.556;2023-04-19T02:45:01;22.95;;;8.02;;
45476;SDS011;31958;51.756;-2.556;2023-04-19T02:47:41;16.77;;;8.68;;
45476;SDS011;31958;51.756;-2.556;2023-04-19T02:50:06;29.42;;;9.60;;
45476;SDS011;31958;51.756;-2.556;2023-04-19T02:52:32;20.77;;;9.45;;
45476;SDS011;31958;51.756;-2.556;2023-04-19T02:55:11;22.17;;;9.80;;
45476;SDS011;31958;51.756;-2.556;2023-04-19T02:57:36;16.90;;;8.73;;
45476;SDS011;31958;51.756;-2.556;2023-04-19T03:00:01;18.60;;;6.93;;
45476;SDS011;31958;51.756;-2.556;2023-04-19T03:02:41;22.23;;;9.70;;
45476;SDS011;31958;51.756;-2.556;2023-04-19T03:05:08;21.80;;;9.52;;
45476;SDS011;31958;51.756;-2.556;2023-04-19T03:07:48;22.00;;;8.32;;
45476;SDS011;31958;51.756;-2.556;2023-04-19T03:10:13;18.77;;;9.25;;
45476;SDS011;31958;51.756;-2.556;2023-04-19T03:12:38;19.65;;;9.50;;
45476;SDS011;31958;51.756;-2.556;2023-04-19T03:15:18;25.52;;;8.75;;
45476;SDS011;31958;51.756;-2.556;2023-04-19T03:17:43;20.15;;;9.80;;
45476;SDS011;31958;51.756;-2.556;2023-04-19T03:20:09;23.02;;;9.73;;
45476;SDS011;31958;51.756;-2.556;2023-04-19T03:22:48;20.35;;;8.70;;
45476;SDS011;31958;51.756;-2.556;2023-04-19T03:25:13;26.25;;;10.20;;
45476;SDS011;31958;51.756;-2.556;2023-04-19T03:27:38;18.98;;;10.20;;
45476;SDS011;31958;51.756;-2.556;2023-04-19T03:30:19;26.00;;;9.55;;
45476;SDS011;31958;51.756;-2.556;2023-04-19T03:32:46;20.83;;;9.15;;
45476;SDS011;31958;51.756;-2.556;2023-04-19T03:35:18;22.33;;;8.90;;
45476;SDS011;31958;51.756;-2.556;2023-04-19T03:37:50;22.05;;;9.85;;
45476;SDS011;31958;51.756;-2.556;2023-04-19T03:40:15;22.30;;;10.02;;
45476;SDS011;31958;51.756;-2.556;2023-04-19T03:42:47;25.08;;;8.77;;
45476;SDS011;31958;51.756;-2.556;2023-04-19T03:45:19;28.35;;;9.13;;
45476;SDS011;31958;51.756;-2.556;2023-04-19T03:47:44;19.95;;;8.77;;
45476;SDS011;31958;51.756;-2.556;2023-04-19T03:50:16;20.80;;;9.63;;
45476;SDS011;31958;51.756;-2.556;2023-04-19T03:52:48;29.10;;;11.00;;
45476;SDS011;31958;51.756;-2.556;2023-04-19T03:55:13;19.65;;;9.60;;
45476;SDS011;31958;51.756;-2.556;2023-04-19T03:57:45;17.05;;;8.85;;
45476;SDS011;31958;51.756;-2.556;2023-04-19T04:00:17;26.63;;;10.65;;
45476;SDS011;31958;51.756;-2.556;2023-04-19T04:02:42;15.02;;;7.88;;
45476;SDS011;31958;51.756;-2.556;2023-04-19T04:05:14;24.25;;;10.45;;
45476;SDS011;31958;51.756;-2.556;2023-04-19T04:07:46;27.25;;;10.23;;
45476;SDS011;31958;51.756;-2.556;2023-04-19T04:10:11;21.75;;;9.75;;
45476;SDS011;31958;51.756;-2.556;2023-04-19T04:12:43;24.60;;;9.95;;
45476;SDS011;31958;51.756;-2.556;2023-04-19T04:15:15;21.20;;;9.75;;
45476;SDS011;31958;51.756;-2.556;2023-04-19T04:17:40;24.25;;;10.75;;
45476;SDS011;31958;51.756;-2.556;2023-04-19T04:20:12;25.30;;;10.15;;
45476;SDS011;31958;51.756;-2.556;2023-04-19T04:22:44;25.27;;;9.48;;
45476;SDS011;31958;51.756;-2.556;2023-04-19T04:25:15;27.25;;;11.20;;
45476;SDS011;31958;51.756;-2.556;2023-04-19T04:27:54;25.17;;;10.13;;
45476;SDS011;31958;51.756;-2.556;2023-04-19T04:30:20;30.65;;;12.18;;
45476;SDS011;31958;51.756;-2.556;2023-04-19T04:32:45;23.85;;;10.32;;
45476;SDS011;31958;51.756;-2.556;2023-04-19T04:35:24;24.65;;;10.73;;
45476;SDS011;31958;51.756;-2.556;2023-04-19T04:37:50;26.65;;;10.27;;
45476;SDS011;31958;51.756;-2.556;2023-04-19T04:40:17;26.60;;;10.65;;
45476;SDS011;31958;51.756;-2.556;2023-04-19T04:42:57;37.80;;;11.27;;
45476;SDS011;31958;51.756;-2.556;2023-04-19T04:45:24;34.17;;;12.18;;
45476;SDS011;31958;51.756;-2.556;2023-04-19T04:48:04;27.97;;;12.30;;
45476;SDS011;31958;51.756;-2.556;2023-04-19T04:50:29;27.67;;;11.93;;
45476;SDS011;31958;51.756;-2.556;2023-04-19T04:52:55;33.80;;;11.38;;
45476;SDS011;31958;51.756;-2.556;2023-04-19T04:55:34;23.48;;;11.93;;
45476;SDS011;31958;51.756;-2.556;2023-04-19T04:58:00;28.95;;;11.60;;
45476;SDS011;31958;51.756;-2.556;2023-04-19T05:00:25;22.27;;;12.07;;
45476;SDS011;31958;51.756;-2.556;2023-04-19T05:03:04;43.90;;;12.80;;
45476;SDS011;31958;51.756;-2.556;2023-04-19T05:05:29;33.13;;;12.73;;
45476;SDS011;31958;51.756;-2.556;2023-04-19T05:07:54;36.42;;;13.13;;
45476;SDS011;31958;51.756;-2.556;2023-04-19T05:10:33;28.60;;;12.05;;
45476;SDS011;31958;51.756;-2.556;2023-04-19T05:12:59;32.08;;;13.93;;
45476;SDS011;31958;51.756;-2.556;2023-04-19T05:15:25;37.00;;;12.57;;
45476;SDS011;31958;51.756;-2.556;2023-04-19T05:18:04;32.70;;;13.10;;
45476;SDS011;31958;51.756;-2.556;2023-04-19T05:20:30;30.33;;;13.55;;
45476;SDS011;31958;51.756;-2.556;2023-04-19T05:22:56;29.42;;;13.57;;
45476;SDS011;31958;51.756;-2.556;2023-04-19T05:25:36;26.83;;;13.30;;
45476;SDS011;31958;51.756;-2.556;2023-04-19T05:28:01;32.55;;;14.05;;
45476;SDS011;31958;51.756;-2.556;2023-04-19T05:30:27;44.38;;;15.55;;
45476;SDS011;31958;51.756;-2.556;2023-04-19T05:33:07;41.80;;;16.05;;
45476;SDS011;31958;51.756;-2.556;2023-04-19T05:35:32;34.97;;;15.52;;
45476;SDS011;31958;51.756;-2.556;2023-04-19T05:37:57;41.45;;;16.38;;
45476;SDS011;31958;51.756;-2.556;2023-04-19T05:40:37;39.42;;;16.05;;
45476;SDS011;31958;51.756;-2.556;2023-04-19T05:43:04;37.08;;;15.43;;
45476;SDS011;31958;51.756;-2.556;2023-04-19T05:45:29;32.25;;;15.55;;
45476;SDS011;31958;51.756;-2.556;2023-04-19T05:48:08;37.70;;;14.95;;
45476;SDS011;31958;51.756;-2.556;2023-04-19T05:50:33;30.90;;;13.00;;
45476;SDS011;31958;51.756;-2.556;2023-04-19T05:53:00;32.90;;;14.40;;
45476;SDS011;31958;51.756;-2.556;2023-04-19T05:55:39;28.45;;;13.77;;
45476;SDS011;31958;51.756;-2.556;2023-04-19T05:58:04;30.73;;;14.27;;
45476;SDS011;31958;51.756;-2.556;2023-04-19T06:00:30;38.13;;;14.38;;
45476;SDS011;31958;51.756;-2.556;2023-04-19T06:03:09;34.85;;;14.25;;
45476;SDS011;31958;51.756;-2.556;2023-04-19T06:05:34;26.23;;;14.27;;
45476;SDS011;31958;51.756;-2.556;2023-04-19T06:08:00;31.00;;;14.35;;
45476;SDS011;31958;51.756;-2.556;2023-04-19T06:10:40;36.90;;;14.95;;
45476;SDS011;31958;51.756;-2.556;2023-04-19T06:13:07;31.02;;;13.48;;
45476;SDS011;31958;51.756;-2.556;2023-04-19T06:15:40;34.13;;;13.50;;
45476;SDS011;31958;51.756;-2.556;2023-04-19T06:18:12;23.35;;;12.98;;
45476;SDS011;31958;51.756;-2.556;2023-04-19T06:20:38;28.30;;;14.13;;
45476;SDS011;31958;51.756;-2.556;2023-04-19T06:23:17;26.70;;;13.18;;
45476;SDS011;31958;51.756;-2.556;2023-04-19T06:25:42;24.75;;;13.32;;
45476;SDS011;31958;51.756;-2.556;2023-04-19T06:28:08;29.45;;;13.13;;
45476;SDS011;31958;51.756;-2.556;2023-04-19T06:30:47;22.17;;;12.85;;
45476;SDS011;31958;51.756;-2.556;2023-04-19T06:33:12;28.17;;;13.63;;
45476;SDS011;31958;51.756;-2.556;2023-04-19T06:35:37;27.10;;;13.48;;
45476;SDS011;31958;51.756;-2.556;2023-04-19T06:38:16;26.63;;;12.00;;
45476;SDS011;31958;51.756;-2.556;2023-04-19T06:40:41;22.27;;;10.65;;
45476;SDS011;31958;51.756;-2.556;2023-04-19T06:43:06;21.73;;;11.02;;
45476;SDS011;31958;51.756;-2.556;2023-04-19T06:45:45;25.15;;;12.13;;
45476;SDS011;31958;51.756;-2.556;2023-04-19T06:48:10;22.25;;;11.20;;
45476;SDS011;31958;51.756;-2.556;2023-04-19T06:50:35;23.55;;;12.02;;
45476;SDS011;31958;51.756;-2.556;2023-04-19T06:53:14;26.88;;;13.48;;
45476;SDS011;31958;51.756;-2.556;2023-04-19T06:55:39;23.98;;;12.57;;
45476;SDS011;31958;51.756;-2.556;2023-04-19T06:58:04;24.50;;;11.95;;
45476;SDS011;31958;51.756;-2.556;2023-04-19T07:00:43;25.48;;;12.93;;
45476;SDS011;31958;51.756;-2.556;2023-04-19T07:03:08;27.05;;;12.65;;
45476;SDS011;31958;51.756;-2.556;2023-04-19T07:05:33;30.25;;;13.35;;
45476;SDS011;31958;51.756;-2.556;2023-04-19T07:08:14;25.13;;;12.07;;
45476;SDS011;31958;51.756;-2.556;2023-04-19T07:10:40;23.77;;;9.55;;
45476;SDS011;31958;51.756;-2.556;2023-04-19T07:13:07;30.00;;;13.07;;
45476;SDS011;31958;51.756;-2.556;2023-04-19T07:15:48;20.33;;;11.50;;
45476;SDS011;31958;51.756;-2.556;2023-04-19T07:18:13;21.58;;;9.93;;
45476;SDS011;31958;51.756;-2.556;2023-04-19T07:20:40;22.27;;;11.20;;
45476;SDS011;31958;51.756;-2.556;2023-04-19T07:23:20;25.38;;;12.18;;
45476;SDS011;31958;51.756;-2.556;2023-04-19T07:25:45;20.48;;;11.27;;
45476;SDS011;31958;51.756;-2.556;2023-04-19T07:28:10;22.90;;;11.88;;
45476;SDS011;31958;51.756;-2.556;2023-04-19T07:30:49;19.50;;;10.48;;
45476;SDS011;31958;51.756;-2.556;2023-04-19T07:33:14;22.02;;;12.70;;
45476;SDS011;31958;51.756;-2.556;2023-04-19T07:35:39;26.63;;;11.90;;
45476;SDS011;31958;51.756;-2.556;2023-04-19T07:38:18;22.40;;;11.18;;
45476;SDS011;31958;51.756;-2.556;2023-04-19T07:40:43;24.42;;;13.05;;
45476;SDS011;31958;51.756;-2.556;2023-04-19T07:43:09;21.30;;;11.75;;
45476;SDS011;31958;51.756;-2.556;2023-04-19T07:45:48;16.20;;;10.73;;
45476;SDS011;31958;51.756;-2.556;2023-04-19T07:48:13;21.73;;;11.85;;
45476;SDS011;31958;51.756;-2.556;2023-04-19T07:50:38;19.58;;;10.07;;
45476;SDS011;31958;51.756;-2.556;2023-04-19T07:53:17;15.15;;;9.00;;
45476;SDS011;31958;51.756;-2.556;2023-04-19T07:55:42;22.52;;;12.63;;
45476;SDS011;31958;51.756;-2.556;2023-04-19T07:58:08;22.33;;;12.13;;
45476;SDS011;31958;51.756;-2.556;2023-04-19T08:00:47;20.90;;;12.15;;
45476;SDS011;31958;51.756;-2.556;2023-04-19T08:03:12;20.92;;;11.73;;
45476;SDS011;31958;51.756;-2.556;2023-04-19T08:05:37;22.63;;;12.15;;
45476;SDS011;31958;51.756;-2.556;2023-04-19T08:08:16;21.05;;;11.52;;
45476;SDS011;31958;51.756;-2.556;2023-04-19T08:10:41;20.45;;;12.27;;
45476;SDS011;31958;51.756;-2.556;2023-04-19T08:13:07;19.63;;;11.52;;
45476;SDS011;31958;51.756;-2.556;2023-04-19T08:15:46;19.38;;;11.02;;
45476;SDS011;31958;51.756;-2.556;2023-04-19T08:18:11;23.08;;;12.07;;
45476;SDS011;31958;51.756;-2.556;2023-04-19T08:20:37;20.15;;;12.30;;
45476;SDS011;31958;51.756;-2.556;2023-04-19T08:23:17;19.45;;;10.18;;
45476;SDS011;31958;51.756;-2.556;2023-04-19T08:25:42;21.60;;;12.07;;
45476;SDS011;31958;51.756;-2.556;2023-04-19T08:28:07;24.38;;;12.65;;
45476;SDS011;31958;51.756;-2.556;2023-04-19T08:30:47;22.40;;;11.60;;
45476;SDS011;31958;51.756;-2.556;2023-04-19T08:33:12;22.03;;;11.87;;
45476;SDS011;31958;51.756;-2.556;2023-04-19T08:35:38;22.02;;;12.32;;
45476;SDS011;31958;51.756;-2.556;2023-04-19T08:38:17;20.75;;;12.95;;
45476;SDS011;31958;51.756;-2.556;2023-04-19T08:40:44;21.02;;;12.00;;
45476;SDS011;31958;51.756;-2.556;2023-04-19T08:43:26;19.00;;;12.00;;
45476;SDS011;31958;51.756;-2.556;2023-04-19T08:45:57;18.90;;;12.40;;
45476;SDS011;31958;51.756;-2.556;2023-04-19T08:48:36;21.58;;;11.48;;
45476;SDS011;31958;51.756;-2.556;2023-04-19T08:51:01;23.95;;;12.73;;
45476;SDS011;31958;51.756;-2.556;2023-04-19T08:53:27;18.33;;;10.30;;
45476;SDS011;31958;51.756;-2.556;2023-04-19T08:56:07;16.05;;;10.05;;
45476;SDS011;31958;51.756;-2.556;2023-04-19T08:58:32;21.48;;;12.13;;
45476;SDS011;31958;51.756;-2.556;2023-04-19T09:00:57;18.88;;;11.20;;
45476;SDS011;31958;51.756;-2.556;2023-04-19T09:03:41;22.10;;;11.05;;
45476;SDS011;31958;51.756;-2.556;2023-04-19T09:06:08;21.33;;;12.25;;
45476;SDS011;31958;51.756;-2.556;2023-04-19T09:08:47;18.92;;;10.55;;
45476;SDS011;31958;51.756;-2.556;2023-04-19T09:11:12;19.35;;;11.95;;
45476;SDS011;31958;51.756;-2.556;2023-04-19T09:13:37;19.00;;;10.35;;
45476;SDS011;31958;51.756;-2.556;2023-04-19T09:16:23;20.05;;;11.32;;
45476;SDS011;31958;51.756;-2.556;2023-04-19T09:18:52;16.10;;;9.98;;
45476;SDS011;31958;51.756;-2.556;2023-04-19T09:21:33;16.92;;;9.98;;
45476;SDS011;31958;51.756;-2.556;2023-04-19T09:23:59;16.73;;;11.45;;
45476;SDS011;31958;51.756;-2.556;2023-04-19T09:26:24;17.15;;;11.45;;
45476;SDS011;31958;51.756;-2.556;2023-04-19T09:29:04;17.92;;;11.60;;
45476;SDS011;31958;51.756;-2.556;2023-04-19T09:33:56;13.52;;;10.60;;
45476;SDS011;31958;51.756;-2.556;2023-04-19T09:36:35;19.83;;;11.73;;
45476;SDS011;31958;51.756;-2.556;2023-04-19T09:39:00;16.95;;;11.52;;
45476;SDS011;31958;51.756;-2.556;2023-04-19T09:41:26;16.58;;;11.35;;
45476;SDS011;31958;51.756;-2.556;2023-04-19T09:44:08;14.80;;;10.57;;
45476;SDS011;31958;51.756;-2.556;2023-04-19T09:46:35;17.73;;;10.13;;
45476;SDS011;31958;51.756;-2.556;2023-04-19T09:51:45;19.85;;;11.70;;
45476;SDS011;31958;51.756;-2.556;2023-04-19T09:54:25;15.15;;;11.75;;
45476;SDS011;31958;51.756;-2.556;2023-04-19T09:56:54;16.00;;;11.00;;
45476;SDS011;31958;51.756;-2.556;2023-04-19T09:59:33;15.93;;;10.70;;
45476;SDS011;31958;51.756;-2.556;2023-04-19T10:01:58;14.55;;;10.25;;
45476;SDS011;31958;51.756;-2.556;2023-04-19T10:04:25;18.65;;;11.32;;
45476;SDS011;31958;51.756;-2.556;2023-04-19T10:07:04;15.65;;;10.48;;
45476;SDS011;31958;51.756;-2.556;2023-04-19T10:09:30;20.25;;;11.90;;
45476;SDS011;31958;51.756;-2.556;2023-04-19T10:11:55;17.90;;;11.80;;
45476;SDS011;31958;51.756;-2.556;2023-04-19T10:14:36;16.52;;;11.70;;
45476;SDS011;31958;51.756;-2.556;2023-04-19T10:17:03;17.52;;;11.32;;
45476;SDS011;31958;51.756;-2.556;2023-04-19T10:19:28;20.10;;;12.95;;
45476;SDS011;31958;51.756;-2.556;2023-04-19T10:22:08;19.80;;;10.97;;
45476;SDS011;31958;51.756;-2.556;2023-04-19T10:24:33;18.58;;;11.18;;
45476;SDS011;31958;51.756;-2.556;2023-04-19T10:29:56;17.27;;;11.48;;
45476;SDS011;31958;51.756;-2.556;2023-04-19T10:32:30;21.45;;;11.23;;
45476;SDS011;31958;51.756;-2.556;2023-04-19T10:35:25;19.08;;;11.15;;
45476;SDS011;31958;51.756;-2.556;2023-04-19T10:38:05;22.13;;;12.60;;
45476;SDS011;31958;51.756;-2.556;2023-04-19T10:40:55;18.02;;;11.18;;
45476;SDS011;31958;51.756;-2.556;2023-04-19T10:43:31;17.23;;;12.33;;
45476;SDS011;31958;51.756;-2.556;2023-04-19T10:48:49;17.75;;;10.80;;
45476;SDS011;31958;51.756;-2.556;2023-04-19T10:51:32;21.10;;;11.80;;
45476;SDS011;31958;51.756;-2.556;2023-04-19T10:54:00;18.92;;;10.80;;
45476;SDS011;31958;51.756;-2.556;2023-04-19T10:56:55;13.80;;;9.95;;
45476;SDS011;31958;51.756;-2.556;2023-04-19T10:59:30;20.60;;;10.40;;
45476;SDS011;31958;51.756;-2.556;2023-04-19T11:07:35;20.05;;;9.93;;
45476;SDS011;31958;51.756;-2.556;2023-04-19T11:10:01;15.77;;;10.27;;
45476;SDS011;31958;51.756;-2.556;2023-04-19T11:12:43;16.02;;;9.65;;
45476;SDS011;31958;51.756;-2.556;2023-04-19T11:15:08;16.40;;;8.90;;
45476;SDS011;31958;51.756;-2.556;2023-04-19T11:17:48;11.70;;;8.13;;
45476;SDS011;31958;51.756;-2.556;2023-04-19T11:20:15;8.85;;;6.20;;
45476;SDS011;31958;51.756;-2.556;2023-04-19T11:22:41;11.25;;;6.40;;
45476;SDS011;31958;51.756;-2.556;2023-04-19T11:25:22;19.25;;;8.38;;
45476;SDS011;31958;51.756;-2.556;2023-04-19T11:27:52;12.90;;;8.27;;
45476;SDS011;31958;51.756;-2.556;2023-04-19T11:30:31;15.68;;;8.65;;
45476;SDS011;31958;51.756;-2.556;2023-04-19T11:32:56;14.85;;;9.90;;
45476;SDS011;31958;51.756;-2.556;2023-04-19T11:38:02;16.42;;;9.20;;
45476;SDS011;31958;51.756;-2.556;2023-04-19T11:40:29;17.52;;;9.35;;
45476;SDS011;31958;51.756;-2.556;2023-04-19T11:42:55;13.55;;;8.23;;
45476;SDS011;31958;51.756;-2.556;2023-04-19T11:45:35;12.93;;;8.25;;
45476;SDS011;31958;51.756;-2.556;2023-04-19T11:48:05;14.77;;;7.78;;
45476;SDS011;31958;51.756;-2.556;2023-04-19T11:50:44;13.90;;;8.45;;
45476;SDS011;31958;51.756;-2.556;2023-04-19T11:55:52;16.42;;;9.65;;
45476;SDS011;31958;51.756;-2.556;2023-04-19T11:58:23;13.15;;;7.38;;
45476;SDS011;31958;51.756;-2.556;2023-04-19T12:01:19;15.40;;;8.90;;
45476;SDS011;31958;51.756;-2.556;2023-04-19T12:03:49;13.27;;;8.38;;
45476;SDS011;31958;51.756;-2.556;2023-04-19T12:06:32;15.93;;;8.48;;
45476;SDS011;31958;51.756;-2.556;2023-04-19T12:08:57;15.88;;;9.75;;
45476;SDS011;31958;51.756;-2.556;2023-04-19T12:11:24;17.23;;;8.93;;
45476;SDS011;31958;51.756;-2.556;2023-04-19T12:14:14;14.52;;;7.88;;
45476;SDS011;31958;51.756;-2.556;2023-04-19T12:16:40;11.05;;;6.97;;
45476;SDS011;31958;51.756;-2.556;2023-04-19T12:19:19;11.73;;;7.18;;
45476;SDS011;31958;51.756;-2.556;2023-04-19T12:21:45;16.02;;;9.32;;
45476;SDS011;31958;51.756;-2.556;2023-04-19T12:24:11;12.95;;;8.52;;
45476;SDS011;31958;51.756;-2.556;2023-04-19T12:26:53;10.13;;;7.15;;
45476;SDS011;31958;51.756;-2.556;2023-04-19T12:29:20;15.43;;;8.90;;
45476;SDS011;31958;51.756;-2.556;2023-04-19T12:31:46;15.02;;;8.20;;
45476;SDS011;31958;51.756;-2.556;2023-04-19T12:34:25;17.10;;;8.95;;
45476;SDS011;31958;51.756;-2.556;2023-04-19T12:36:50;12.20;;;7.32;;
45476;SDS011;31958;51.756;-2.556;2023-04-19T12:39:15;13.80;;;8.23;;
45476;SDS011;31958;51.756;-2.556;2023-04-19T12:41:54;14.77;;;7.90;;
45476;SDS011;31958;51.756;-2.556;2023-04-19T12:44:20;16.48;;;7.18;;
45476;SDS011;31958;51.756;-2.556;2023-04-19T12:46:45;11.25;;;6.57;;
45476;SDS011;31958;51.756;-2.556;2023-04-19T12:49:28;13.07;;;7.43;;
45476;SDS011;31958;51.756;-2.556;2023-04-19T12:51:53;10.80;;;6.22;;
45476;SDS011;31958;51.756;-2.556;2023-04-19T12:54:25;10.82;;;6.93;;
45476;SDS011;31958;51.756;-2.556;2023-04-19T12:56:57;9.15;;;5.63;;
45476;SDS011;31958;51.756;-2.556;2023-04-19T12:59:22;10.02;;;6.50;;
45476;SDS011;31958;51.756;-2.556;2023-04-19T13:01:54;8.90;;;5.72;;
45476;SDS011;31958;51.756;-2.556;2023-04-19T13:04:27;9.05;;;5.93;;
45476;SDS011;31958;51.756;-2.556;2023-04-19T13:06:52;8.68;;;5.57;;
45476;SDS011;31958;51.756;-2.556;2023-04-19T13:09:26;9.35;;;5.07;;
45476;SDS011;31958;51.756;-2.556;2023-04-19T13:11:58;9.38;;;5.47;;
45476;SDS011;31958;51.756;-2.556;2023-04-19T13:14:27;10.30;;;5.63;;
45476;SDS011;31958;51.756;-2.556;2023-04-19T13:17:06;10.18;;;5.43;;
45476;SDS011;31958;51.756;-2.556;2023-04-19T13:19:31;8.45;;;5.40;;
45476;SDS011;31958;51.756;-2.556;2023-04-19T13:21:56;12.27;;;6.32;;
45476;SDS011;31958;51.756;-2.556;2023-04-19T13:24:36;8.50;;;5.30;;
45476;SDS011;31958;51.756;-2.556;2023-04-19T13:27:01;9.57;;;5.90;;
45476;SDS011;31958;51.756;-2.556;2023-04-19T13:29:26;9.73;;;6.00;;
45476;SDS011;31958;51.756;-2.556;2023-04-19T13:32:05;7.10;;;4.32;;
45476;SDS011;31958;51.756;-2.556;2023-04-19T13:34:36;14.25;;;6.20;;
45476;SDS011;31958;51.756;-2.556;2023-04-19T13:39:41;11.57;;;6.72;;
45476;SDS011;31958;51.756;-2.556;2023-04-19T13:42:06;10.43;;;6.15;;
45476;SDS011;31958;51.756;-2.556;2023-04-19T13:44:46;12.93;;;6.50;;
45476;SDS011;31958;51.756;-2.556;2023-04-19T13:47:11;12.00;;;5.68;;
45476;SDS011;31958;51.756;-2.556;2023-04-19T13:49:36;13.68;;;8.07;;
45476;SDS011;31958;51.756;-2.556;2023-04-19T13:52:16;11.82;;;6.72;;
45476;SDS011;31958;51.756;-2.556;2023-04-19T13:54:42;9.40;;;6.25;;
45476;SDS011;31958;51.756;-2.556;2023-04-19T13:57:08;10.15;;;5.75;;
45476;SDS011;31958;51.756;-2.556;2023-04-19T13:59:47;10.80;;;6.22;;
45476;SDS011;31958;51.756;-2.556;2023-04-19T14:02:12;12.88;;;7.82;;
45476;SDS011;31958;51.756;-2.556;2023-04-19T14:04:37;21.02;;;8.25;;
45476;SDS011;31958;51.756;-2.556;2023-04-19T14:07:16;13.05;;;7.88;;
45476;SDS011;31958;51.756;-2.556;2023-04-19T14:09:41;18.77;;;8.07;;
45476;SDS011;31958;51.756;-2.556;2023-04-19T14:12:06;12.63;;;6.97;;
45476;SDS011;31958;51.756;-2.556;2023-04-19T14:14:46;15.93;;;7.43;;
45476;SDS011;31958;51.756;-2.556;2023-04-19T14:17:11;11.15;;;7.10;;
45476;SDS011;31958;51.756;-2.556;2023-04-19T14:19:36;14.30;;;6.70;;
45476;SDS011;31958;51.756;-2.556;2023-04-19T14:22:15;15.48;;;7.18;;
45476;SDS011;31958;51.756;-2.556;2023-04-19T14:24:41;11.10;;;7.43;;
45476;SDS011;31958;51.756;-2.556;2023-04-19T14:27:06;12.82;;;6.85;;
45476;SDS011;31958;51.756;-2.556;2023-04-19T14:29:45;11.82;;;6.55;;
45476;SDS011;31958;51.756;-2.556;2023-04-19T14:32:10;14.68;;;7.57;;
45476;SDS011;31958;51.756;-2.556;2023-04-19T14:34:35;12.20;;;7.13;;
45476;SDS011;31958;51.756;-2.556;2023-04-19T14:37:14;13.35;;;7.45;;
45476;SDS011;31958;51.756;-2.556;2023-04-19T14:39:39;11.38;;;7.35;;
45476;SDS011;31958;51.756;-2.556;2023-04-19T14:42:04;13.25;;;7.50;;
45476;SDS011;31958;51.756;-2.556;2023-04-19T14:44:43;11.63;;;5.63;;
45476;SDS011;31958;51.756;-2.556;2023-04-19T14:47:09;7.22;;;3.95;;
45476;SDS011;31958;51.756;-2.556;2023-04-19T14:49:35;11.98;;;6.15;;
45476;SDS011;31958;51.756;-2.556;2023-04-19T14:52:14;6.82;;;4.00;;
45476;SDS011;31958;51.756;-2.556;2023-04-19T14:54:40;14.93;;;7.00;;
45476;SDS011;31958;51.756;-2.556;2023-04-19T14:57:06;9.95;;;6.22;;
45476;SDS011;31958;51.756;-2.556;2023-04-19T14:59:45;10.57;;;6.10;;
45476;SDS011;31958;51.756;-2.556;2023-04-19T15:02:10;9.40;;;5.50;;